Time;durP1;ratioP1;P1;durP2;ratioP2;P2;SDS_P1;SDS_P2;PMS_P1;PMS_P2;Temp;Humidity;BMP_temperature;BMP_pressure;BME280_temperature;BME280_humidity;BME280_pressure;Samples;Min_cycle;Max_cycle;Signal;HPM_P1;HPM_P2
2022/10/15 00:00:21;;;;;;;4.82;2.00;;;;;;;18.10;42.41;99036.19;5057276;28;20119;-76
2022/10/15 00:02:46;;;;;;;3.78;1.73;;;;;;;18.12;42.36;99041.31;5073880;28;20029;-76
2022/10/15 00:05:12;;;;;;;3.10;2.00;;;;;;;18.05;42.29;99025.28;5075335;28;20471;-75
2022/10/15 00:07:37;;;;;;;5.13;1.88;;;;;;;18.07;42.53;99037.34;5073670;28;20062;-76
2022/10/15 00:10:03;;;;;;;4.72;2.13;;;;;;;18.06;42.30;99034.88;5073850;28;20403;-75
2022/10/15 00:12:28;;;;;;;5.30;2.45;;;;;;;18.06;42.56;99043.59;5056935;28;20035;-76
2022/10/15 00:14:54;;;;;;;3.40;1.95;;;;;;;18.05;42.50;99034.03;5073642;28;20037;-75
2022/10/15 00:17:19;;;;;;;7.82;2.35;;;;;;;18.00;42.54;99030.22;5073787;28;20542;-75
2022/10/15 00:19:45;;;;;;;4.35;2.20;;;;;;;18.00;42.54;99023.09;5073862;28;20032;-75
2022/10/15 00:22:10;;;;;;;3.80;2.15;;;;;;;18.00;42.67;99022.28;5073464;28;20033;-75
2022/10/15 00:24:36;;;;;;;3.65;2.20;;;;;;;18.00;42.92;99027.56;5057268;28;20029;-75
2022/10/15 00:27:01;;;;;;;4.15;2.10;;;;;;;17.98;42.66;99022.44;5056999;28;20036;-75
2022/10/15 00:29:27;;;;;;;4.53;2.47;;;;;;;17.98;43.09;99021.59;5073376;28;20059;-76
2022/10/15 00:31:53;;;;;;;7.45;2.55;;;;;;;17.96;43.01;99015.66;5056990;28;20039;-75
2022/10/15 00:34:19;;;;;;;4.75;2.38;;;;;;;17.95;43.05;99017.47;5074048;28;20032;-75
2022/10/15 00:36:44;;;;;;;5.47;2.35;;;;;;;17.94;43.20;99009.72;5072859;28;20029;-75
2022/10/15 00:39:10;;;;;;;5.13;2.03;;;;;;;17.93;43.18;99018.59;5073398;28;20024;-75
2022/10/15 00:41:38;;;;;;;4.18;2.47;;;;;;;17.87;43.22;99005.03;5089806;28;20043;-75
2022/10/15 00:44:23;;;;;;;4.43;2.30;;;;;;;17.90;43.21;99017.94;5056296;28;20104;-75
2022/10/15 00:46:50;;;;;;;4.93;2.50;;;;;;;17.85;43.33;99011.44;5089910;28;20525;-75
2022/10/15 00:49:23;;;;;;;4.30;2.20;;;;;;;17.86;43.20;99013.91;5073627;28;20174;-74
2022/10/15 00:51:54;;;;;;;3.17;2.10;;;;;;;17.81;43.47;98999.56;5072556;28;20036;-74
2022/10/15 00:54:20;;;;;;;4.40;2.20;;;;;;;17.83;43.58;99014.22;5072828;28;20028;-75
2022/10/15 00:56:46;;;;;;;4.47;2.22;;;;;;;17.80;43.46;99008.44;5072935;28;20032;-77
2022/10/15 00:59:11;;;;;;;4.28;2.33;;;;;;;17.83;43.18;99018.69;5073433;28;20075;-74
2022/10/15 01:01:37;;;;;;;3.65;2.30;;;;;;;17.81;43.51;99018.03;5056144;28;20058;-77
2022/10/15 01:04:02;;;;;;;6.25;2.60;;;;;;;17.81;43.43;99018.03;5073543;28;20115;-76
2022/10/15 01:06:28;;;;;;;5.43;2.45;;;;;;;17.76;43.51;99007.09;5072680;28;20506;-75
2022/10/15 01:08:53;;;;;;;4.90;2.40;;;;;;;17.78;43.56;99010.41;5072680;28;20040;-75
2022/10/15 01:11:38;;;;;;;4.00;2.20;;;;;;;17.77;43.48;99012.22;5073138;28;20028;-74
2022/10/15 01:14:41;;;;;;;8.30;2.78;;;;;;;17.75;43.73;99010.75;5072699;28;20169;-75
2022/10/15 01:17:27;;;;;;;6.32;2.50;;;;;;;17.68;43.75;99003.44;5089167;28;20024;-75
2022/10/15 01:20:01;;;;;;;4.63;2.67;;;;;;;17.71;43.72;99016.31;5072895;28;20488;-75
2022/10/15 01:23:04;;;;;;;5.07;2.30;;;;;;;17.70;43.73;99008.56;5089419;28;20036;-76
2022/10/15 01:25:40;;;;;;;5.78;2.58;;;;;;;17.68;43.93;99014.00;5073699;28;20031;-75
2022/10/15 01:28:43;;;;;;;5.50;2.35;;;;;;;17.67;43.83;99007.03;5051739;28;20041;-75
2022/10/15 01:31:27;;;;;;;4.40;2.53;;;;;;;17.66;44.18;99007.22;5053537;28;20041;-75
2022/10/15 01:33:56;;;;;;;4.80;2.50;;;;;;;17.65;44.14;99008.22;5053677;28;20099;-76
2022/10/15 01:36:31;;;;;;;4.70;2.45;;;;;;;17.63;44.14;99012.78;5052354;28;20556;-78
2022/10/15 01:38:59;;;;;;;6.30;2.50;;;;;;;17.64;44.32;99006.53;5069145;28;20032;-76
2022/10/15 01:41:34;;;;;;;4.63;2.60;;;;;;;17.59;44.23;98995.63;5068973;28;20481;-76
2022/10/15 01:44:03;;;;;;;6.82;3.03;;;;;;;17.56;44.40;98994.13;5035514;28;20037;-76
2022/10/15 01:46:42;;;;;;;6.38;2.67;;;;;;;17.58;44.45;98999.25;5036294;28;20397;-75
2022/10/15 01:49:08;;;;;;;6.63;2.83;;;;;;;17.59;44.61;99007.00;5037363;28;20112;-75
2022/10/15 01:51:34;;;;;;;5.38;2.78;;;;;;;17.57;44.56;99003.69;5037818;28;20117;-75
2022/10/15 01:53:59;;;;;;;5.20;2.60;;;;;;;17.58;44.67;99010.63;5072245;28;20032;-75
2022/10/15 01:56:25;;;;;;;5.38;2.60;;;;;;;17.54;44.92;99006.66;5055194;28;20047;-76
2022/10/15 01:58:51;;;;;;;4.22;2.53;;;;;;;17.56;44.88;99009.94;5072122;28;20051;-75
2022/10/15 02:01:17;;;;;;;6.95;2.80;;;;;;;17.53;44.88;99004.97;5055120;28;20040;-76
2022/10/15 02:03:44;;;;;;;4.35;2.70;;;;;;;17.53;44.87;99010.25;5071826;28;20404;-76
2022/10/15 02:06:10;;;;;;;5.43;2.90;;;;;;;17.51;44.99;99007.78;5072057;28;20471;-76
2022/10/15 02:08:52;;;;;;;7.13;3.03;;;;;;;17.54;44.94;99015.38;5072180;28;20032;-75
2022/10/15 02:11:17;;;;;;;5.78;2.75;;;;;;;17.46;45.05;98994.22;5071796;28;20040;-77
2022/10/15 02:13:46;;;;;;;4.97;2.53;;;;;;;17.53;45.08;99012.91;5071825;28;20040;-75
2022/10/15 02:16:31;;;;;;;7.60;3.35;;;;;;;17.51;45.09;99006.97;5073191;28;20024;-78
2022/10/15 02:19:07;;;;;;;7.53;3.70;;;;;;;17.47;45.21;99009.09;5074224;28;20041;-75
2022/10/15 02:21:43;;;;;;;4.95;3.05;;;;;;;17.50;45.32;99007.94;5071880;28;20025;-75
2022/10/15 02:24:16;;;;;;;6.05;3.03;;;;;;;17.49;45.43;99008.91;5072002;28;20060;-76
2022/10/15 02:26:41;;;;;;;4.55;2.90;;;;;;;17.49;45.40;99011.53;5054952;28;20020;-77
2022/10/15 02:29:09;;;;;;;6.18;3.00;;;;;;;17.46;45.54;99001.31;5054293;28;20059;-76
2022/10/15 02:31:34;;;;;;;6.28;2.90;;;;;;;17.46;45.66;99004.78;5055053;28;20057;-77
2022/10/15 02:34:02;;;;;;;8.32;3.10;;;;;;;17.46;45.50;99010.06;5071357;28;20412;-76
2022/10/15 02:36:28;;;;;;;7.90;3.47;;;;;;;17.46;45.63;99015.34;5071387;28;20463;-76
2022/10/15 02:38:54;;;;;;;6.63;2.88;;;;;;;17.42;45.67;99008.69;5071458;28;20090;-74
2022/10/15 02:41:19;;;;;;;7.93;3.55;;;;;;;17.44;45.73;99014.69;5071152;28;20040;-77
2022/10/15 02:43:45;;;;;;;5.07;2.92;;;;;;;17.46;45.56;99017.97;5071236;28;20040;-77
2022/10/15 02:46:11;;;;;;;6.10;3.15;;;;;;;17.41;45.66;99004.44;5071089;28;20080;-74
2022/10/15 02:48:36;;;;;;;6.05;2.90;;;;;;;17.44;45.87;99011.19;5071381;28;20040;-74
2022/10/15 02:51:03;;;;;;;7.60;3.05;;;;;;;17.41;45.67;99008.84;5071187;28;20381;-74
2022/10/15 02:53:29;;;;;;;6.57;3.00;;;;;;;17.42;45.75;99010.53;5070883;28;20408;-73
2022/10/15 02:55:54;;;;;;;6.88;2.95;;;;;;;17.43;45.74;99009.56;5071206;28;20032;-73
2022/10/15 02:58:20;;;;;;;4.72;2.78;;;;;;;17.38;45.55;98999.47;5055369;28;20060;-73
2022/10/15 03:00:45;;;;;;;7.82;2.95;;;;;;;17.41;45.61;99008.84;5054670;28;20469;-73
2022/10/15 03:03:10;;;;;;;4.22;2.50;;;;;;;17.42;45.30;99013.16;5054280;28;20066;-74
2022/10/15 03:05:36;;;;;;;6.45;2.88;;;;;;;17.38;45.43;99002.09;5054285;28;20040;-75
2022/10/15 03:08:01;;;;;;;5.65;2.72;;;;;;;17.42;45.32;99013.97;5044630;28;20040;-75
2022/10/15 03:10:27;;;;;;;4.65;2.85;;;;;;;17.42;45.43;99011.34;5034368;28;20469;-75
2022/10/15 03:12:52;;;;;;;6.30;3.03;;;;;;;17.40;45.34;99010.69;5034019;28;20048;-76
2022/10/15 03:15:18;;;;;;;5.18;2.72;;;;;;;17.33;45.38;99004.34;5034579;28;20130;-75
2022/10/15 03:17:43;;;;;;;6.63;3.80;;;;;;;17.34;45.34;99004.19;5020857;28;20070;-75
2022/10/15 03:20:09;;;;;;;5.50;2.50;;;;;;;17.38;45.40;99017.94;5070878;28;20068;-75
2022/10/15 03:22:34;;;;;;;6.20;2.60;;;;;;;17.34;44.98;99009.47;5070681;28;20503;-76
2022/10/15 03:25:00;;;;;;;5.15;2.60;;;;;;;17.35;45.17;99016.41;5070884;28;20052;-75
2022/10/15 03:27:25;;;;;;;4.43;2.50;;;;;;;17.32;45.10;99007.97;5054299;28;20037;-74
2022/10/15 03:29:51;;;;;;;4.28;2.17;;;;;;;17.35;45.13;99012.94;5070758;28;20110;-75
2022/10/15 03:32:16;;;;;;;4.68;2.80;;;;;;;17.33;44.88;99014.91;5071839;28;20033;-75
2022/10/15 03:34:42;;;;;;;4.80;2.50;;;;;;;17.33;45.17;99015.75;5070784;28;20029;-73
2022/10/15 03:37:07;;;;;;;3.95;2.20;;;;;;;17.32;45.01;99013.25;5070744;28;20040;-73
2022/10/15 03:39:33;;;;;;;3.80;2.50;;;;;;;17.26;45.04;99011.22;5070803;28;20040;-75
2022/10/15 03:41:58;;;;;;;5.32;2.60;;;;;;;17.31;45.10;99016.88;5070745;28;20420;-75
2022/10/15 03:44:24;;;;;;;3.30;2.20;;;;;;;17.25;44.98;99012.19;5070651;28;20064;-75
2022/10/15 03:46:49;;;;;;;7.80;2.70;;;;;;;17.29;44.87;99022.31;5070700;28;20032;-75
2022/10/15 03:49:15;;;;;;;4.50;2.60;;;;;;;17.25;44.82;99009.56;5054079;28;20060;-73
2022/10/15 03:51:40;;;;;;;5.00;2.42;;;;;;;17.26;44.81;99014.69;5071562;28;20036;-75
2022/10/15 03:54:06;;;;;;;5.32;2.65;;;;;;;17.20;44.72;99010.03;5070954;28;20467;-75
2022/10/15 03:56:31;;;;;;;4.95;2.58;;;;;;;17.22;44.68;99007.22;5054114;28;20080;-75
2022/10/15 03:58:57;;;;;;;5.38;2.42;;;;;;;17.26;44.60;99024.44;5070541;28;20446;-75
2022/10/15 04:01:22;;;;;;;5.35;2.60;;;;;;;17.23;44.74;99009.72;5070475;28;20059;-75
2022/10/15 04:03:51;;;;;;;4.13;2.38;;;;;;;17.24;44.61;99029.03;5069927;28;20063;-74
2022/10/15 04:06:17;;;;;;;5.30;2.47;;;;;;;17.23;44.67;99019.44;5070596;28;20128;-73
2022/10/15 04:08:42;;;;;;;5.18;2.28;;;;;;;17.18;44.50;99012.00;5072539;28;20035;-77
2022/10/15 04:11:08;;;;;;;6.70;2.45;;;;;;;17.16;44.43;99009.50;5057609;28;20479;-85
2022/10/15 04:13:33;;;;;;;4.45;2.30;;;;;;;17.21;44.58;99021.41;5074079;28;20086;-75
2022/10/15 04:15:59;;;;;;;3.85;2.25;;;;;;;17.21;44.48;99021.41;5075408;28;20028;-75
2022/10/15 04:18:24;;;;;;;4.38;2.33;;;;;;;17.18;44.47;99022.53;5075047;28;20380;-75
2022/10/15 04:20:50;;;;;;;3.72;2.10;;;;;;;17.14;44.20;99018.53;5090675;28;20044;-75
2022/10/15 04:23:16;;;;;;;3.67;2.47;;;;;;;17.15;44.36;99017.56;5073698;28;20483;-75
2022/10/15 04:25:41;;;;;;;5.00;2.40;;;;;;;17.11;44.23;99024.13;5074080;28;20067;-75
2022/10/15 04:28:07;;;;;;;4.95;2.55;;;;;;;17.14;44.09;99021.19;5073892;28;20032;-75
2022/10/15 04:30:32;;;;;;;4.38;2.17;;;;;;;17.09;44.15;99018.19;5073704;28;20051;-75
2022/10/15 04:32:58;;;;;;;3.28;1.88;;;;;;;17.10;44.21;99019.84;5073943;28;20428;-75
2022/10/15 04:35:23;;;;;;;6.22;2.20;;;;;;;17.11;44.17;99021.47;5057119;28;20400;-77
2022/10/15 04:37:49;;;;;;;4.10;2.20;;;;;;;17.10;44.14;99017.22;5074072;28;20067;-75
2022/10/15 04:40:15;;;;;;;3.30;1.90;;;;;;;17.04;44.00;99021.28;5057120;28;20078;-76
2022/10/15 04:42:40;;;;;;;5.15;2.17;;;;;;;17.10;44.15;99019.84;5073453;28;20077;-73
2022/10/15 04:45:06;;;;;;;3.15;2.00;;;;;;;17.10;43.89;99025.13;5057095;28;20044;-73
2022/10/15 04:47:32;;;;;;;3.78;2.05;;;;;;;17.10;43.93;99017.22;5073445;28;20202;-74
2022/10/15 04:49:57;;;;;;;3.30;2.20;;;;;;;17.09;43.83;99028.72;5056259;28;20487;-74
2022/10/15 04:52:23;;;;;;;10.13;2.28;;;;;;;17.07;43.76;99031.50;5073730;28;20106;-73
2022/10/15 04:54:48;;;;;;;4.43;1.90;;;;;;;17.10;43.78;99030.41;5073364;28;20074;-74
2022/10/15 04:57:14;;;;;;;3.58;1.88;;;;;;;17.07;43.60;99030.69;5073310;28;20032;-74
2022/10/15 04:59:40;;;;;;;5.32;1.90;;;;;;;17.13;43.56;99028.28;5073522;28;20402;-76
2022/10/15 05:02:06;;;;;;;6.28;1.83;;;;;;;17.12;43.50;99037.16;5073185;28;20028;-77
2022/10/15 05:04:31;;;;;;;3.58;1.95;;;;;;;17.14;43.47;99037.84;5073042;28;20032;-72
2022/10/15 05:06:57;;;;;;;4.35;2.13;;;;;;;17.24;47.52;99043.03;5066462;28;20076;-66
2022/10/15 05:09:22;;;;;;;7.93;2.33;;;;;;;17.61;55.83;99043.81;5065302;28;20028;-74
2022/10/15 05:11:48;;;;;;;7.57;2.70;;;;;;;17.90;55.20;99048.81;5030719;28;20067;-73
2022/10/15 05:14:14;;;;;;;7.22;3.00;;;;;;;17.95;53.28;99046.53;5043862;28;20036;-73
2022/10/15 05:16:39;;;;;;;8.68;3.03;;;;;;;17.88;51.88;99043.69;5061707;28;20539;-73
2022/10/15 05:19:05;;;;;;;13.18;2.78;;;;;;;17.91;51.02;99047.81;5032282;28;20415;-74
2022/10/15 05:21:32;;;;;;;9.15;3.10;;;;;;;17.89;49.77;99055.88;5043626;28;20025;-74
2022/10/15 05:23:58;;;;;;;11.70;2.90;;;;;;;18.03;54.13;99056.31;5061934;28;20029;-74
2022/10/15 05:26:24;;;;;;;4.47;2.20;;;;;;;18.25;53.02;99066.31;5044474;28;20094;-71
2022/10/15 05:28:50;;;;;;;10.77;3.08;;;;;;;18.23;51.12;99063.03;5059609;28;20053;-76
2022/10/15 05:31:17;;;;;;;6.47;2.90;;;;;;;18.22;50.08;99069.28;5061768;28;20606;-71
2022/10/15 05:33:43;;;;;;;11.43;2.63;;;;;;;18.20;49.53;99071.25;5044290;28;20036;-73
2022/10/15 05:36:13;;;;;;;5.20;2.30;;;;;;;18.16;48.90;99069.91;5060117;28;20099;-73
2022/10/15 05:38:39;;;;;;;7.65;2.55;;;;;;;18.11;48.50;99061.63;5043196;28;20142;-73
2022/10/15 05:41:05;;;;;;;11.27;3.00;;;;;;;18.16;48.06;99075.19;5046778;28;20512;-70
2022/10/15 05:43:30;;;;;;;7.22;2.45;;;;;;;18.21;49.02;99080.00;5059755;28;20059;-71
2022/10/15 05:45:56;;;;;;;7.85;2.60;;;;;;;18.60;52.32;99082.97;5055286;28;20020;-70
2022/10/15 05:48:22;;;;;;;6.70;3.00;;;;;;;18.75;50.01;99083.16;5058286;28;20126;-70
2022/10/15 05:50:47;;;;;;;11.88;2.30;;;;;;;18.94;48.88;99086.56;5059181;28;20020;-72
2022/10/15 05:53:13;;;;;;;6.60;1.92;;;;;;;18.86;42.69;99082.06;5042160;28;20067;-69
2022/10/15 05:55:38;;;;;;;10.48;2.42;;;;;;;19.33;47.73;99092.06;5060744;28;20032;-77
2022/10/15 05:58:04;;;;;;;8.73;3.05;;;;;;;19.72;45.58;99085.28;5043691;28;20044;-71
2022/10/15 06:00:30;;;;;;;5.90;2.47;;;;;;;19.68;44.15;99081.31;5046256;28;20036;-72
2022/10/15 06:02:55;;;;;;;6.78;2.70;;;;;;;20.12;41.71;99074.81;5058212;28;20025;-69
2022/10/15 06:05:21;;;;;;;6.07;2.50;;;;;;;20.57;39.72;99065.31;5059845;28;20411;-71
2022/10/15 06:07:46;;;;;;;5.43;2.10;;;;;;;20.78;38.45;99075.38;5060863;28;20132;-70
2022/10/15 06:10:12;;;;;;;3.63;2.17;;;;;;;21.28;37.25;99062.56;5035143;28;20514;-71
2022/10/15 06:12:38;;;;;;;6.78;2.33;;;;;;;21.69;36.46;99068.38;5025222;28;20032;-71
2022/10/15 06:15:04;;;;;;;3.92;2.30;;;;;;;22.00;35.75;99066.59;5059716;28;20056;-69
2022/10/15 06:17:30;;;;;;;6.47;2.33;;;;;;;22.08;35.35;99068.34;5043702;28;20029;-70
2022/10/15 06:19:55;;;;;;;6.30;2.63;;;;;;;22.03;34.83;99068.91;5053072;28;20028;-70
2022/10/15 06:22:21;;;;;;;4.18;2.33;;;;;;;22.31;34.11;99071.75;5050767;28;20056;-72
2022/10/15 06:24:46;;;;;;;7.30;2.00;;;;;;;22.36;35.87;99072.03;5017766;28;20036;-75
2022/10/15 06:27:16;;;;;;;4.07;1.55;;;;;;;22.03;34.08;99074.22;5018255;28;20033;-78
2022/10/15 06:29:42;;;;;;;7.28;1.63;;;;;;;21.90;34.25;99079.31;5050978;28;20049;-75
2022/10/15 06:32:10;;;;;;;5.85;1.92;;;;;;;22.19;39.46;99089.16;5033822;28;20037;-73
2022/10/15 06:34:36;;;;;;;6.40;1.80;;;;;;;22.98;37.49;99080.50;5033728;28;20049;-71
2022/10/15 06:37:01;;;;;;;4.28;1.80;;;;;;;23.30;35.44;99079.19;5050847;28;20025;-72
2022/10/15 06:39:27;;;;;;;3.03;1.60;;;;;;;23.34;34.29;99090.31;5050431;28;20112;-70
2022/10/15 06:41:52;;;;;;;2.85;1.52;;;;;;;23.38;33.62;99090.75;5051096;28;20079;-71
2022/10/15 06:44:18;;;;;;;5.95;1.70;;;;;;;23.58;32.96;99096.25;5055346;28;20464;-73
2022/10/15 06:46:43;;;;;;;2.78;1.48;;;;;;;23.97;32.16;99095.75;5053507;28;20044;-71
2022/10/15 06:49:09;;;;;;;4.65;1.75;;;;;;;24.49;35.73;99090.88;5070681;28;20032;-77
2022/10/15 06:51:36;;;;;;;6.05;1.67;;;;;;;25.45;32.18;99089.13;5070594;28;20036;-70
2022/10/15 06:54:02;;;;;;;9.20;1.70;;;;;;;26.47;29.71;99099.47;5070458;28;20114;-71
2022/10/15 06:56:28;;;;;;;10.15;2.00;;;;;;;27.98;30.18;99105.16;5053277;28;20028;-70
2022/10/15 06:58:53;;;;;;;13.23;2.20;;;;;;;29.15;27.21;99095.28;5070197;28;20039;-72
2022/10/15 07:01:18;;;;;;;4.85;1.83;;;;;;;30.34;25.29;99094.28;5069839;28;20036;-73
2022/10/15 07:03:48;;;;;;;4.70;1.77;;;;;;;31.28;23.67;99105.78;5070710;28;20085;-73
2022/10/15 07:06:14;;;;;;;10.85;1.70;;;;;;;31.80;23.09;99108.28;5069950;28;20115;-73
2022/10/15 07:08:40;;;;;;;7.82;3.40;;;;;;;32.07;22.35;99107.56;5071413;28;20070;-72
2022/10/15 07:11:07;;;;;;;5.40;2.50;;;;;;;32.05;22.11;99109.69;5053334;28;20029;-70
2022/10/15 07:13:33;;;;;;;7.63;2.35;;;;;;;31.77;22.10;99102.53;5070254;28;20028;-72
2022/10/15 07:16:03;;;;;;;5.63;2.92;;;;;;;31.36;22.11;99103.53;5067703;28;20052;-71
2022/10/15 07:18:28;;;;;;;5.65;2.90;;;;;;;31.31;22.11;99098.06;5042263;28;20120;-72
2022/10/15 07:20:55;;;;;;;7.38;2.83;;;;;;;31.33;21.70;99108.59;5026211;28;20412;-74
2022/10/15 07:23:21;;;;;;;6.22;2.53;;;;;;;31.19;21.39;99100.81;5023901;28;20404;-75
2022/10/15 07:25:46;;;;;;;5.35;1.70;;;;;;;30.74;21.29;99106.13;5062896;28;20147;-71
2022/10/15 07:28:12;;;;;;;5.43;2.00;;;;;;;30.29;22.04;99113.03;5069476;28;20490;-72
2022/10/15 07:30:37;;;;;;;8.25;2.30;;;;;;;30.06;22.31;99101.25;5069955;28;20029;-72
2022/10/15 07:33:03;;;;;;;10.82;2.25;;;;;;;29.80;24.58;99104.44;5070235;28;20040;-74
2022/10/15 07:35:28;;;;;;;29.55;17.50;;;;;;;29.66;26.47;99099.22;5070451;28;20028;-70
2022/10/15 07:37:54;;;;;;;19.83;9.77;;;;;;;29.86;27.40;99112.38;5053237;28;20043;-72
2022/10/15 07:40:19;;;;;;;17.38;8.60;;;;;;;30.09;27.78;99102.63;5053098;28;20028;-68
2022/10/15 07:42:52;;;;;;;16.65;7.47;;;;;;;30.43;28.01;99105.56;5070277;28;20036;-70
2022/10/15 07:45:17;;;;;;;22.15;10.35;;;;;;;30.81;28.35;99109.53;5074235;28;20032;-70
2022/10/15 07:47:43;;;;;;;14.15;6.22;;;;;;;31.35;26.71;99101.88;5075145;28;20040;-80
2022/10/15 07:50:08;;;;;;;13.02;4.60;;;;;;;31.71;25.61;99118.66;5057644;28;20127;-73
2022/10/15 07:52:34;;;;;;;12.10;7.47;;;;;;;31.99;25.07;99114.22;5075034;28;20032;-71
2022/10/15 07:54:59;;;;;;;10.25;5.10;;;;;;;32.28;24.76;99114.91;5069645;28;20448;-74
2022/10/15 07:57:25;;;;;;;34.15;18.08;;;;;;;32.40;23.16;99106.69;5029901;28;20025;-70
2022/10/15 07:59:50;;;;;;;10.93;6.38;;;;;;;32.54;22.36;99109.81;5047261;28;20036;-79
2022/10/15 08:02:16;;;;;;;7.03;3.00;;;;;;;32.62;21.03;99097.75;5044363;28;20075;-77
2022/10/15 08:04:41;;;;;;;22.25;7.57;;;;;;;32.74;21.82;99101.16;5064470;28;20024;-78
2022/10/15 08:07:07;;;;;;;12.50;3.67;;;;;;;32.62;21.45;99103.16;5030124;28;20024;-84
2022/10/15 08:09:33;;;;;;;7.95;3.17;;;;;;;32.52;20.70;99109.25;5062451;28;20511;-81
2022/10/15 08:11:59;;;;;;;9.55;2.35;;;;;;;32.21;22.19;99108.06;5065897;28;20037;-80
2022/10/15 08:14:26;;;;;;;6.82;2.65;;;;;;;31.59;22.15;99114.44;5062066;28;20572;-78
2022/10/15 08:16:51;;;;;;;6.28;2.35;;;;;;;31.27;21.70;99109.56;5069620;28;20492;-77
2022/10/15 08:19:17;;;;;;;5.82;1.88;;;;;;;31.54;20.71;99110.56;5056657;28;20039;-78
2022/10/15 08:21:45;;;;;;;3.50;1.75;;;;;;;31.31;20.23;99105.31;5073077;28;20029;-81
2022/10/15 08:24:11;;;;;;;5.35;2.00;;;;;;;31.42;20.30;99112.50;5056320;28;20047;-72
2022/10/15 08:26:37;;;;;;;5.18;2.42;;;;;;;30.89;20.05;99094.84;5073486;28;20411;-71
2022/10/15 08:29:03;;;;;;;8.23;2.80;;;;;;;30.93;21.16;99098.69;5073019;28;20059;-75
2022/10/15 08:31:28;;;;;;;5.60;2.50;;;;;;;30.96;20.96;99103.59;5055960;28;20056;-75
2022/10/15 08:33:54;;;;;;;4.18;2.08;;;;;;;30.82;20.80;99105.75;5071072;28;20109;-76
2022/10/15 08:36:19;;;;;;;7.43;2.03;;;;;;;30.57;20.47;99100.69;5052321;28;20029;-73
2022/10/15 08:38:45;;;;;;;8.10;2.80;;;;;;;30.38;24.85;99110.78;5060107;28;20037;-70
2022/10/15 08:41:18;;;;;;;6.95;2.00;;;;;;;30.38;20.68;99119.72;5060979;28;20024;-83
2022/10/15 08:43:43;;;;;;;6.68;1.67;;;;;;;30.40;21.28;99114.91;5060865;28;20042;-77
2022/10/15 08:46:12;;;;;;;9.88;2.33;;;;;;;30.04;21.49;99107.91;5061638;28;20410;-80
2022/10/15 08:48:46;;;;;;;10.60;2.47;;;;;;;29.82;20.73;99105.00;5047407;28;20044;-71
2022/10/15 08:51:20;;;;;;;6.20;1.40;;;;;;;29.50;20.80;99111.50;5034721;28;20033;-76
2022/10/15 08:53:51;;;;;;;7.10;1.73;;;;;;;29.00;21.42;99104.56;5045577;28;20032;-74
2022/10/15 08:56:25;;;;;;;5.13;1.85;;;;;;;28.83;21.44;99119.69;5043248;28;20024;-78
2022/10/15 08:59:20;;;;;;;6.32;1.67;;;;;;;28.54;21.70;99119.38;5045027;28;20036;-74
2022/10/15 09:01:48;;;;;;;4.60;1.73;;;;;;;28.53;21.88;99117.75;5043658;28;20111;-74
2022/10/15 09:04:45;;;;;;;4.43;1.73;;;;;;;28.74;21.54;99124.53;5068693;28;20452;-77
2022/10/15 09:07:28;;;;;;;5.85;1.85;;;;;;;29.13;21.38;99121.53;5062506;28;20100;-78
2022/10/15 09:10:25;;;;;;;5.75;1.95;;;;;;;28.85;21.28;99117.59;5059146;28;20039;-77
2022/10/15 09:12:57;;;;;;;5.57;1.85;;;;;;;28.57;22.54;99116.25;5060091;28;20021;-78
2022/10/15 09:15:24;;;;;;;7.72;1.70;;;;;;;29.16;22.33;99119.22;5062899;28;20055;-80
2022/10/15 09:17:51;;;;;;;4.45;1.90;;;;;;;29.60;21.96;99121.66;5052814;28;20032;-73
2022/10/15 09:20:22;;;;;;;8.82;1.40;;;;;;;29.97;21.29;99123.34;5033514;28;20046;-77
2022/10/15 09:22:49;;;;;;;3.85;1.40;;;;;;;30.49;20.38;99126.97;5044727;28;20029;-79
2022/10/15 09:25:16;;;;;;;6.88;2.10;;;;;;;30.90;21.01;99131.50;5036013;28;20036;-76
2022/10/15 09:27:45;;;;;;;4.40;2.03;;;;;;;30.48;22.93;99133.38;5060830;28;20045;-75
2022/10/15 09:30:25;;;;;;;5.45;1.73;;;;;;;30.65;21.77;99121.88;5053478;28;20135;-75
2022/10/15 09:32:52;;;;;;;5.05;1.38;;;;;;;30.63;21.23;99127.50;5046857;28;20086;-73
2022/10/15 09:35:43;;;;;;;4.82;1.70;;;;;;;30.97;19.96;99124.94;5060645;28;20212;-73
2022/10/15 09:38:33;;;;;;;6.82;2.13;;;;;;;31.17;20.03;99129.91;5050833;28;20020;-72
2022/10/15 09:41:17;;;;;;;7.38;1.60;;;;;;;31.31;20.11;99132.28;5062608;28;20473;-76
2022/10/15 09:43:48;;;;;;;5.28;1.60;;;;;;;31.47;20.34;99136.88;5062217;28;20020;-74
2022/10/15 09:46:14;;;;;;;5.53;1.40;;;;;;;31.13;20.42;99127.91;5034058;28;20048;-74
2022/10/15 09:49:07;;;;;;;7.82;1.98;;;;;;;30.69;21.31;99130.28;5035860;28;20071;-74
2022/10/15 09:51:32;;;;;;;5.72;1.70;;;;;;;30.37;21.42;99130.69;5060710;28;20044;-73
2022/10/15 09:54:02;;;;;;;4.68;2.05;;;;;;;29.98;22.39;99120.44;5059925;28;20020;-72
2022/10/15 09:56:41;;;;;;;4.97;1.73;;;;;;;29.72;22.27;99127.88;5042670;28;20025;-73
2022/10/15 09:59:08;;;;;;;3.22;1.77;;;;;;;29.48;22.10;99126.25;5059619;28;20057;-75
2022/10/15 10:01:34;;;;;;;3.77;1.87;;;;;;;29.22;22.93;99129.09;5042470;28;20033;-72
2022/10/15 10:04:19;;;;;;;5.32;2.42;;;;;;;28.86;23.60;99116.53;5044338;28;20313;-71
2022/10/15 10:06:52;;;;;;;5.00;2.03;;;;;;;28.60;23.88;99123.88;5056690;28;20036;-72
2022/10/15 10:09:25;;;;;;;3.40;1.88;;;;;;;28.28;24.33;99125.91;5042616;28;20025;-74
2022/10/15 10:11:57;;;;;;;5.80;2.30;;;;;;;28.01;25.12;99122.69;5051259;28;20516;-74
2022/10/15 10:14:29;;;;;;;4.43;1.60;;;;;;;27.74;25.11;99131.75;5025617;28;20493;-75
2022/10/15 10:17:18;;;;;;;6.30;1.75;;;;;;;27.49;25.81;99128.25;5058645;28;20024;-74
2022/10/15 10:19:45;;;;;;;5.97;1.80;;;;;;;27.24;25.41;99121.75;5040865;28;20052;-74
2022/10/15 10:22:18;;;;;;;4.20;1.85;;;;;;;27.08;26.24;99124.97;5033364;28;20120;-75
2022/10/15 10:24:44;;;;;;;4.18;1.85;;;;;;;26.87;25.49;99115.41;5044734;28;20492;-74
2022/10/15 10:27:17;;;;;;;6.50;1.55;;;;;;;26.59;25.12;99113.03;5059168;28;20025;-75
2022/10/15 10:29:45;;;;;;;5.80;1.48;;;;;;;26.62;25.21;99118.78;5044726;28;20139;-74
2022/10/15 10:32:19;;;;;;;9.25;1.70;;;;;;;26.34;26.13;99113.72;5050144;28;20028;-73
2022/10/15 10:34:45;;;;;;;4.88;2.00;;;;;;;26.14;27.19;99117.28;5045449;28;20045;-72
2022/10/15 10:37:10;;;;;;;3.28;1.90;;;;;;;25.95;26.87;99110.91;5058886;28;20043;-76
2022/10/15 10:39:36;;;;;;;6.15;2.78;;;;;;;25.71;27.31;99095.50;5043577;28;20065;-72
2022/10/15 10:42:18;;;;;;;8.80;5.22;;;;;;;25.62;27.57;99109.06;5044040;28;20029;-74
2022/10/15 10:44:45;;;;;;;11.10;5.50;;;;;;;25.41;28.03;99102.09;5059329;28;20044;-73
2022/10/15 10:47:14;;;;;;;10.17;4.70;;;;;;;25.26;28.25;99112.09;5058948;28;20016;-75
2022/10/15 10:49:45;;;;;;;6.63;4.50;;;;;;;25.05;28.74;99103.22;5076959;28;20115;-74
2022/10/15 10:52:27;;;;;;;6.78;5.05;;;;;;;24.86;29.55;99103.97;5033022;28;20032;-75
2022/10/15 10:55:06;;;;;;;8.02;5.13;;;;;;;24.81;29.68;99107.28;5041714;28;20058;-70
2022/10/15 10:57:51;;;;;;;6.95;3.78;;;;;;;24.68;29.87;99099.22;5061019;28;20029;-73
2022/10/15 11:00:51;;;;;;;4.47;2.60;;;;;;;24.54;29.96;99091.13;5063707;28;20060;-70
2022/10/15 11:03:36;;;;;;;3.80;2.58;;;;;;;24.49;30.34;99098.88;5039113;28;20041;-69
2022/10/15 11:06:26;;;;;;;5.85;2.40;;;;;;;24.38;34.10;99104.78;5040245;28;20047;-76
2022/10/15 11:09:16;;;;;;;8.20;2.60;;;;;;;24.29;31.42;99097.97;5023452;28;20782;-84
2022/10/15 11:11:43;;;;;;;4.35;2.22;;;;;;;24.20;32.74;99097.31;5037690;28;20025;-77
2022/10/15 11:14:22;;;;;;;8.48;2.20;;;;;;;24.09;32.67;99092.53;5040282;28;20463;-83
2022/10/15 11:16:56;;;;;;;10.38;2.03;;;;;;;24.00;32.26;99091.84;5016040;28;20087;-81
2022/10/15 11:19:48;;;;;;;7.50;2.22;;;;;;;24.00;34.73;99100.69;5022827;28;20091;-82
2022/10/15 11:22:17;;;;;;;5.57;2.20;;;;;;;24.07;33.80;99089.22;5038875;28;20037;-85
2022/10/15 11:24:48;;;;;;;;;;;;;;;24.15;33.73;99092.56;5041680;28;20025;-82
2022/10/15 11:27:48;;;;;;;5.35;2.45;;;;;;;24.35;33.13;99091.84;5039817;28;20024;-83
2022/10/15 11:30:26;;;;;;;6.57;2.58;;;;;;;24.49;33.29;99085.53;4962762;28;20054;-84
2022/10/15 11:32:55;;;;;;;;;;;;;;;24.54;32.96;99088.47;4954766;28;20035;-82
2022/10/15 11:35:28;;;;;;;7.55;3.17;;;;;;;24.68;32.74;99092.00;4929334;28;19914;-82
2022/10/15 11:38:37;;;;;;;11.30;2.90;;;;;;;24.69;32.87;99082.19;4946843;28;20087;-87
2022/10/15 11:41:24;;;;;;;6.30;2.80;;;;;;;24.74;32.63;99082.41;4933606;29;20083;-82
2022/10/15 11:43:57;;;;;;;6.13;3.00;;;;;;;24.76;32.85;99088.34;4929877;29;20035;-71